createdAt,value
2022-12-09T00:00:33.148Z,1.08
2022-12-09T00:05:54.969Z,0.95
2022-12-09T00:11:18.001Z,0.70
2022-12-09T00:16:40.065Z,0.85
2022-12-09T00:22:01.977Z,0.70
2022-12-09T00:27:24.490Z,0.70
2022-12-09T00:32:46.312Z,0.90
2022-12-09T00:38:08.170Z,0.50
2022-12-09T00:43:29.960Z,0.80
2022-12-09T00:48:51.739Z,0.60
2022-12-09T00:54:13.747Z,0.65
2022-12-09T00:59:35.579Z,0.50
2022-12-09T01:04:57.423Z,0.50
2022-12-09T01:10:19.341Z,0.50
2022-12-09T01:15:41.650Z,0.60
2022-12-09T01:21:03.605Z,0.60
2022-12-09T01:26:25.733Z,0.52
2022-12-09T01:31:48.220Z,0.50
2022-12-09T01:37:10.148Z,0.60
2022-12-09T01:42:34.454Z,0.50
2022-12-09T01:48:29.869Z,0.63
2022-12-09T01:53:52.456Z,0.60
2022-12-09T01:59:16.573Z,0.50
2022-12-09T02:04:42.594Z,0.50
2022-12-09T02:10:13.602Z,0.50
2022-12-09T02:15:46.293Z,0.77
2022-12-09T02:21:34.049Z,0.73
2022-12-09T02:27:17.329Z,0.50
2022-12-09T02:33:05.436Z,0.60
2022-12-09T02:38:31.773Z,0.60
2022-12-09T02:44:03.271Z,0.50
2022-12-09T02:49:27.447Z,0.50
2022-12-09T02:54:50.197Z,0.90
2022-12-09T03:00:15.778Z,1.00
2022-12-09T03:11:16.180Z,1.02
2022-12-09T03:16:49.956Z,0.68
2022-12-09T03:22:20.186Z,0.63
2022-12-09T03:27:53.117Z,0.70
2022-12-09T03:33:18.044Z,0.77
2022-12-09T03:38:43.890Z,0.80
2022-12-09T03:44:14.115Z,0.60
2022-12-09T03:49:38.404Z,0.70
2022-12-09T03:55:09.432Z,0.90
2022-12-09T04:00:31.449Z,0.80
2022-12-09T04:05:53.160Z,0.70
2022-12-09T04:11:15.163Z,0.73
2022-12-09T04:16:37.239Z,0.90
2022-12-09T04:21:59.054Z,0.90
2022-12-09T04:27:20.742Z,0.77
2022-12-09T04:32:42.542Z,0.75
2022-12-09T04:38:04.434Z,0.80
2022-12-09T04:43:26.937Z,1.17
2022-12-09T04:48:48.775Z,1.40
2022-12-09T04:54:14.650Z,1.10
2022-12-09T04:59:36.462Z,1.80
2022-12-09T05:05:01.871Z,1.48
2022-12-09T05:10:23.788Z,1.60
2022-12-09T05:15:46.316Z,1.60
2022-12-09T05:21:10.343Z,1.48
2022-12-09T05:26:32.280Z,1.52
2022-12-09T05:31:54.193Z,2.10
2022-12-09T05:37:16.662Z,1.95
2022-12-09T05:42:41.716Z,1.80
2022-12-09T05:48:04.486Z,1.95
2022-12-09T05:53:26.634Z,1.75
2022-12-09T05:58:49.197Z,1.60
2022-12-09T06:04:11.188Z,1.15
2022-12-09T06:09:34.113Z,1.50
2022-12-09T06:14:56.645Z,1.30
2022-12-09T06:20:18.903Z,1.20
2022-12-09T06:25:45.844Z,1.00
2022-12-09T06:31:08.009Z,1.05
2022-12-09T06:36:31.472Z,0.77
2022-12-09T06:41:53.412Z,1.30
2022-12-09T06:47:15.540Z,1.23
2022-12-09T06:52:37.742Z,1.13
2022-12-09T06:57:59.875Z,1.20
2022-12-09T07:03:21.890Z,1.00
2022-12-09T07:08:44.361Z,1.30
2022-12-09T07:14:06.785Z,1.83
2022-12-09T07:19:30.472Z,1.30
2022-12-09T07:24:52.319Z,1.40
2022-12-09T07:30:14.281Z,1.35
2022-12-09T07:35:36.334Z,1.05
2022-12-09T07:41:05.745Z,1.20
2022-12-09T07:46:28.080Z,0.93
2022-12-09T07:51:50.788Z,0.93
2022-12-09T07:57:12.655Z,0.88
2022-12-09T08:02:34.807Z,1.10
2022-12-09T08:07:56.850Z,0.60
2022-12-09T08:13:20.010Z,0.70
2022-12-09T08:18:42.970Z,0.80
2022-12-09T08:24:06.114Z,0.90
2022-12-09T08:29:28.525Z,0.63
2022-12-09T08:34:50.384Z,0.80
2022-12-09T08:40:13.120Z,1.00
2022-12-09T08:45:40.871Z,0.82
2022-12-09T08:51:03.163Z,0.98
2022-12-09T08:56:26.216Z,0.70
2022-12-09T09:01:48.517Z,0.80
2022-12-09T09:07:11.502Z,0.80
2022-12-09T09:12:38.846Z,1.02
2022-12-09T09:18:04.650Z,0.70
2022-12-09T09:23:26.858Z,0.85
2022-12-09T09:28:50.215Z,1.02
2022-12-09T09:34:12.342Z,1.05
2022-12-09T09:39:34.261Z,0.73
2022-12-09T09:44:56.319Z,0.77
2022-12-09T09:50:37.971Z,0.90
2022-12-09T09:56:47.232Z,0.60
2022-12-09T10:02:12.031Z,0.95
2022-12-09T10:07:53.695Z,0.60
2022-12-09T10:13:28.710Z,0.73
2022-12-09T10:19:15.543Z,1.20
2022-12-09T10:24:43.112Z,1.33
2022-12-09T10:30:10.675Z,1.60
2022-12-09T10:35:33.765Z,1.10
2022-12-09T10:41:41.581Z,1.40
2022-12-09T10:52:38.522Z,0.88
2022-12-09T10:58:14.460Z,1.00
2022-12-09T11:03:49.940Z,1.20
2022-12-09T11:09:23.450Z,1.15
2022-12-09T11:15:00.620Z,0.98
2022-12-09T11:20:24.408Z,1.50
2022-12-09T11:26:07.723Z,0.93
2022-12-09T11:31:33.745Z,0.80
2022-12-09T11:36:58.676Z,1.40
2022-12-09T11:42:23.245Z,1.20
2022-12-09T11:53:29.859Z,1.38
2022-12-09T11:59:04.563Z,1.23
2022-12-09T12:04:53.083Z,1.48
2022-12-09T12:10:41.127Z,2.50
2022-12-09T12:16:25.757Z,2.30
2022-12-09T12:22:00.683Z,2.10
2022-12-09T12:27:25.376Z,2.85
2022-12-09T12:39:12.999Z,2.20
2022-12-09T12:44:59.299Z,2.28
2022-12-09T12:51:03.793Z,1.60
2022-12-09T12:56:37.983Z,1.40
2022-12-09T13:02:16.342Z,1.38
2022-12-09T13:07:48.450Z,1.10
2022-12-09T13:13:31.758Z,1.13
2022-12-09T13:18:54.708Z,1.30
2022-12-09T13:24:34.507Z,1.35
2022-12-09T13:30:05.132Z,1.17
2022-12-09T13:35:35.823Z,1.40
2022-12-09T13:40:57.509Z,1.52
2022-12-09T13:46:27.686Z,1.60
2022-12-09T13:51:52.022Z,1.45
2022-12-09T13:57:35.632Z,1.65
2022-12-09T14:03:04.690Z,1.35
2022-12-09T14:08:32.353Z,1.42
2022-12-09T14:14:22.954Z,1.42
2022-12-09T14:19:53.013Z,2.03
2022-12-09T14:25:37.645Z,1.45
2022-12-09T14:31:06.678Z,1.30
2022-12-09T14:36:33.394Z,3.03
2022-12-09T14:42:00.295Z,3.93
2022-12-09T14:47:28.340Z,3.30
2022-12-09T14:52:53.098Z,2.58
2022-12-09T14:58:22.051Z,1.80
2022-12-09T15:03:54.713Z,1.95
2022-12-09T15:09:17.265Z,1.70
2022-12-09T15:14:40.378Z,1.48
2022-12-09T15:20:04.311Z,1.13
2022-12-09T15:25:26.672Z,1.30
2022-12-09T15:31:00.465Z,1.05
2022-12-09T15:36:27.611Z,1.30
2022-12-09T15:42:07.239Z,1.23
2022-12-09T15:47:40.407Z,1.42
2022-12-09T15:53:53.688Z,1.67
2022-12-09T15:59:21.461Z,1.77
2022-12-09T16:04:46.695Z,1.00
2022-12-09T16:10:14.897Z,1.42
2022-12-09T16:15:46.892Z,1.10
2022-12-09T16:21:31.622Z,1.23
2022-12-09T16:26:55.357Z,1.17
2022-12-09T16:32:23.323Z,1.38
2022-12-09T16:38:09.496Z,2.95
2022-12-09T16:43:31.373Z,3.17
2022-12-09T16:48:53.046Z,2.58
2022-12-09T16:54:20.523Z,3.00
2022-12-09T16:59:43.998Z,3.67
2022-12-09T17:05:06.658Z,3.10
2022-12-09T17:10:28.561Z,3.88
2022-12-09T17:15:51.891Z,3.70
2022-12-09T17:21:14.402Z,3.53
2022-12-09T17:26:36.141Z,3.35
2022-12-09T17:31:57.854Z,2.97
2022-12-09T17:37:19.834Z,3.40
2022-12-09T17:42:41.553Z,3.20
2022-12-09T17:48:03.825Z,2.70
2022-12-09T17:53:25.643Z,2.67
2022-12-09T17:58:53.844Z,2.03
2022-12-09T18:04:16.107Z,3.55
2022-12-09T18:09:37.815Z,2.72
2022-12-09T18:14:59.481Z,2.75
2022-12-09T18:20:21.285Z,3.25
2022-12-09T18:25:43.085Z,2.90
2022-12-09T18:31:14.125Z,2.15
2022-12-09T18:36:35.937Z,2.30
2022-12-09T18:41:57.805Z,2.25
2022-12-09T18:47:19.547Z,2.00
2022-12-09T18:52:42.040Z,2.90
2022-12-09T18:58:03.829Z,3.30
2022-12-09T19:03:25.597Z,2.78
2022-12-09T19:08:48.740Z,2.92
2022-12-09T19:14:11.092Z,2.95
2022-12-09T19:19:32.802Z,3.03
2022-12-09T19:24:54.528Z,4.40
2022-12-09T19:30:16.217Z,4.53
2022-12-09T19:35:37.910Z,4.20
2022-12-09T19:41:03.199Z,4.43
2022-12-09T19:46:26.704Z,4.35
2022-12-09T19:51:49.297Z,4.18
2022-12-09T19:57:11.033Z,4.05
2022-12-09T20:02:32.735Z,3.60
2022-12-09T20:07:55.455Z,3.28
2022-12-09T20:13:17.349Z,3.88
2022-12-09T20:18:39.511Z,3.92
2022-12-09T20:24:02.665Z,4.10
2022-12-09T20:29:24.380Z,3.20
2022-12-09T20:34:48.080Z,3.45
2022-12-09T20:40:11.023Z,2.63
2022-12-09T20:45:32.767Z,2.70
2022-12-09T20:50:54.523Z,2.60
2022-12-09T20:56:17.720Z,2.72
2022-12-09T21:01:39.569Z,2.60
2022-12-09T21:07:01.338Z,2.13
2022-12-09T21:12:23.045Z,2.47
2022-12-09T21:17:48.537Z,2.45
2022-12-09T21:28:52.609Z,2.55
2022-12-09T21:34:14.686Z,2.20
2022-12-09T21:39:36.408Z,2.53
2022-12-09T21:44:58.270Z,2.67
2022-12-09T21:50:20.005Z,3.17
2022-12-09T21:55:41.927Z,2.80
2022-12-09T22:01:20.939Z,2.53
2022-12-09T22:06:46.787Z,2.83
2022-12-09T22:12:08.739Z,3.67
2022-12-09T22:17:32.289Z,3.20
2022-12-09T22:22:54.133Z,3.00
2022-12-09T22:28:15.916Z,3.13
2022-12-09T22:33:37.771Z,2.40
2022-12-09T22:38:59.487Z,2.80
2022-12-09T22:44:21.246Z,2.33
2022-12-09T22:49:42.969Z,2.40
2022-12-09T22:55:05.674Z,2.17
2022-12-09T23:00:27.836Z,2.20
2022-12-09T23:05:49.628Z,2.15
2022-12-09T23:11:14.235Z,2.15
2022-12-09T23:16:35.947Z,2.60
2022-12-09T23:21:57.662Z,1.88
2022-12-09T23:27:19.321Z,2.08
2022-12-09T23:32:41.165Z,2.28
2022-12-09T23:38:03.329Z,1.90
2022-12-09T23:43:25.241Z,1.98
2022-12-09T23:48:49.201Z,1.80
2022-12-09T23:54:14.714Z,1.75
2022-12-09T23:59:36.653Z,1.90
